Time;durP1;ratioP1;P1;durP2;ratioP2;P2;SDS_P1;SDS_P2;PMS_P1;PMS_P2;Temp;Humidity;BMP_temperature;BMP_pressure;BME280_temperature;BME280_humidity;BME280_pressure;Samples;Min_cycle;Max_cycle;Signal;HPM_P1;HPM_P2
2021/01/30 00:02:01;;;;;;;5.75;3.70;;;1.10;99.90;;;;;;5134218;27;20133;-54
2021/01/30 00:04:27;;;;;;;5.90;3.63;;;1.20;99.90;;;;;;5134266;27;20082;-54
2021/01/30 00:06:53;;;;;;;5.90;3.38;;;1.20;99.90;;;;;;5133979;27;20078;-53
2021/01/30 00:09:21;;;;;;;5.65;3.33;;;1.20;99.90;;;;;;5132754;27;20485;-54
2021/01/30 00:11:52;;;;;;;8.73;3.20;;;1.20;99.90;;;;;;5134095;27;20481;-54
2021/01/30 00:14:27;;;;;;;6.05;3.00;;;1.20;99.90;;;;;;5134145;27;20555;-53
2021/01/30 00:16:53;;;;;;;7.30;3.00;;;1.20;99.90;;;;;;5134137;27;20108;-53
2021/01/30 00:19:21;;;;;;;8.10;3.20;;;1.20;99.90;;;;;;5133887;27;20488;-55
2021/01/30 00:21:55;;;;;;;4.07;2.72;;;1.30;99.90;;;;;;5133794;27;20092;-53
2021/01/30 00:24:22;;;;;;;4.55;3.17;;;1.30;99.90;;;;;;5134016;27;20047;-54
2021/01/30 00:26:53;;;;;;;5.32;2.72;;;1.30;99.90;;;;;;5133640;27;20039;-54
2021/01/30 00:29:22;;;;;;;7.28;2.97;;;1.20;99.90;;;;;;5133801;27;20527;-54
2021/01/30 00:31:48;;;;;;;5.70;3.00;;;1.20;99.90;;;;;;5133934;27;20043;-54
2021/01/30 00:34:15;;;;;;;7.38;2.95;;;1.20;99.90;;;;;;5133700;27;20043;-52
2021/01/30 00:36:41;;;;;;;6.43;2.85;;;1.20;99.90;;;;;;5133524;27;20043;-54
2021/01/30 00:39:07;;;;;;;5.10;2.90;;;1.20;99.90;;;;;;5133838;27;20057;-55
2021/01/30 00:41:32;;;;;;;8.55;3.40;;;1.20;99.90;;;;;;5133531;27;20138;-54
2021/01/30 00:43:59;;;;;;;7.38;3.40;;;1.20;99.90;;;;;;5133611;27;20078;-55
2021/01/30 00:46:26;;;;;;;11.35;3.00;;;1.20;99.90;;;;;;5133447;27;20093;-54
2021/01/30 00:48:51;;;;;;;7.43;3.03;;;1.20;99.90;;;;;;5132954;27;20408;-54
2021/01/30 00:51:21;;;;;;;6.65;2.58;;;1.20;99.90;;;;;;5133153;27;20039;-55
2021/01/30 00:53:47;;;;;;;5.63;2.80;;;1.20;99.90;;;;;;5133566;27;20035;-54
2021/01/30 00:56:13;;;;;;;12.20;3.15;;;1.20;99.90;;;;;;5133466;27;20070;-54
2021/01/30 00:58:39;;;;;;;5.32;2.67;;;1.20;99.90;;;;;;5133397;27;20110;-53
2021/01/30 01:01:06;;;;;;;7.65;3.17;;;1.20;99.90;;;;;;5133256;27;20446;-54
2021/01/30 01:03:31;;;;;;;7.38;2.70;;;1.20;99.90;;;;;;5133175;27;20046;-54
2021/01/30 01:05:57;;;;;;;8.20;2.95;;;1.20;99.90;;;;;;5133027;27;20401;-52
2021/01/30 01:08:25;;;;;;;6.50;2.80;;;1.20;99.90;;;;;;5133314;27;20062;-54
2021/01/30 01:10:51;;;;;;;6.15;3.15;;;1.30;99.90;;;;;;5133288;27;20488;-53
2021/01/30 01:13:18;;;;;;;4.07;2.80;;;1.30;99.90;;;;;;5133133;27;20125;-54
2021/01/30 01:15:44;;;;;;;10.32;2.80;;;1.30;99.90;;;;;;5131955;27;20040;-54
2021/01/30 01:18:10;;;;;;;6.80;3.20;;;1.30;99.90;;;;;;5132844;27;20047;-53
2021/01/30 01:20:37;;;;;;;5.72;3.42;;;1.30;99.90;;;;;;5132857;27;20043;-53
2021/01/30 01:23:03;;;;;;;7.25;3.22;;;1.30;99.90;;;;;;5131282;28;20043;-53
2021/01/30 01:25:29;;;;;;;5.75;2.85;;;1.30;99.90;;;;;;5133011;27;20050;-55
2021/01/30 01:27:55;;;;;;;9.10;3.28;;;1.30;99.90;;;;;;5132971;27;20039;-53
2021/01/30 01:30:22;;;;;;;8.55;3.55;;;1.30;99.90;;;;;;5133036;28;20100;-54
2021/01/30 01:32:49;;;;;;;8.05;3.50;;;1.20;99.90;;;;;;5133236;27;20035;-54
2021/01/30 01:35:18;;;;;;;5.78;3.40;;;1.30;99.90;;;;;;5133074;27;20047;-53
2021/01/30 01:37:45;;;;;;;10.52;4.20;;;1.20;99.90;;;;;;5132945;27;20066;-54
2021/01/30 01:40:15;;;;;;;6.75;3.83;;;1.20;99.90;;;;;;5132927;27;20047;-53
2021/01/30 01:42:41;;;;;;;10.45;4.88;;;1.10;99.90;;;;;;5132977;27;20050;-51
2021/01/30 01:45:08;;;;;;;8.38;3.60;;;1.10;99.90;;;;;;5132607;28;20047;-53
2021/01/30 01:47:39;;;;;;;7.57;3.72;;;1.10;99.90;;;;;;5132924;27;20130;-54
2021/01/30 01:50:13;;;;;;;8.63;4.00;;;1.10;99.90;;;;;;5132987;27;20044;-53
2021/01/30 01:52:42;;;;;;;6.60;3.88;;;1.10;99.90;;;;;;5133135;27;20050;-54
2021/01/30 01:55:19;;;;;;;8.25;3.80;;;1.00;99.90;;;;;;5132984;27;20049;-53
2021/01/30 01:57:48;;;;;;;5.60;3.70;;;1.00;99.90;;;;;;5132600;27;20064;-54
2021/01/30 02:00:16;;;;;;;;;;;1.00;99.90;;;;;;5133350;27;20047;-54
2021/01/30 02:02:41;;;;;;;8.02;3.88;;;0.90;99.90;;;;;;5136332;27;20383;-51
2021/01/30 02:05:09;;;;;;;5.80;3.80;;;0.90;99.90;;;;;;5136420;27;20055;-51
2021/01/30 02:07:43;;;;;;;12.23;5.07;;;0.90;99.90;;;;;;5136481;27;20054;-53
2021/01/30 02:10:15;;;;;;;9.30;5.03;;;1.00;99.90;;;;;;5136593;27;20047;-53
2021/01/30 02:12:42;;;;;;;8.30;3.95;;;0.90;99.90;;;;;;5136583;27;20043;-53
2021/01/30 02:15:09;;;;;;;8.55;4.32;;;0.90;99.90;;;;;;5136822;27;20043;-54
2021/01/30 02:17:46;;;;;;;11.23;4.57;;;0.90;99.90;;;;;;5136655;27;20039;-54
2021/01/30 02:20:15;;;;;;;7.75;4.28;;;0.90;99.90;;;;;;5136277;27;20081;-52
2021/01/30 02:22:41;;;;;;;10.70;4.55;;;0.80;99.90;;;;;;5136058;27;20412;-52
2021/01/30 02:25:51;;;;;;;8.00;4.55;;;0.90;99.90;;;;;;5136201;27;20053;-53
2021/01/30 02:28:33;;;;;;;7.50;4.13;;;0.80;99.90;;;;;;5136465;27;20051;-52
2021/01/30 02:31:24;;;;;;;8.95;4.50;;;0.80;99.90;;;;;;5136008;27;20071;-54
2021/01/30 02:34:15;;;;;;;7.20;4.60;;;0.80;99.90;;;;;;5136125;27;20043;-53
2021/01/30 02:36:41;;;;;;;7.53;4.13;;;0.80;99.90;;;;;;5136196;27;20043;-52
2021/01/30 02:39:16;;;;;;;10.82;5.05;;;0.70;99.90;;;;;;5136044;27;20490;-53
2021/01/30 02:42:08;;;;;;;9.60;4.88;;;0.70;99.90;;;;;;5136225;27;20043;-54
2021/01/30 02:44:39;;;;;;;9.75;5.03;;;0.70;99.90;;;;;;5135935;27;20058;-54
2021/01/30 02:47:08;;;;;;;9.68;5.15;;;0.60;99.90;;;;;;5135676;27;20074;-54
2021/01/30 02:49:38;;;;;;;8.45;4.45;;;0.60;99.90;;;;;;5135764;27;20449;-52
2021/01/30 02:52:15;;;;;;;7.22;4.47;;;0.70;99.90;;;;;;5135739;27;20465;-54
2021/01/30 02:54:42;;;;;;;10.07;5.15;;;0.60;99.90;;;;;;5135699;27;20058;-53
2021/01/30 02:57:11;;;;;;;6.75;4.47;;;0.60;99.90;;;;;;5135828;27;20047;-52
2021/01/30 02:59:49;;;;;;;11.82;5.32;;;0.60;99.90;;;;;;5135660;27;20047;-54
2021/01/30 03:02:18;;;;;;;10.07;5.75;;;0.70;99.90;;;;;;5135751;27;20050;-51
2021/01/30 03:04:44;;;;;;;9.32;4.63;;;0.60;99.90;;;;;;5135162;27;20047;-52
2021/01/30 03:07:13;;;;;;;8.57;4.43;;;0.60;99.90;;;;;;5135333;27;20042;-53
2021/01/30 03:09:48;;;;;;;9.23;5.13;;;0.50;99.90;;;;;;5135543;27;20409;-54
2021/01/30 03:12:32;;;;;;;8.68;5.30;;;0.50;99.90;;;;;;5134397;27;20288;-53
2021/01/30 03:15:05;;;;;;;10.38;4.57;;;0.50;99.90;;;;;;5135095;27;20537;-51
2021/01/30 03:17:32;;;;;;;7.93;4.70;;;0.50;99.90;;;;;;5135295;27;20122;-52
2021/01/30 03:19:59;;;;;;;10.25;4.65;;;0.50;99.90;;;;;;5135520;27;20091;-54
2021/01/30 03:22:26;;;;;;;8.88;4.60;;;0.50;99.90;;;;;;5135212;27;20138;-53
2021/01/30 03:24:54;;;;;;;10.15;5.78;;;0.50;99.90;;;;;;5135130;27;20058;-53
2021/01/30 03:27:28;;;;;;;11.18;4.97;;;0.50;99.90;;;;;;5134857;27;20047;-53
2021/01/30 03:29:55;;;;;;;6.20;4.28;;;0.40;99.90;;;;;;5135299;27;20053;-50
2021/01/30 03:32:22;;;;;;;10.40;5.13;;;0.40;99.90;;;;;;5135060;27;20043;-50
2021/01/30 03:34:49;;;;;;;8.95;4.68;;;0.50;99.90;;;;;;5134857;27;20095;-53
2021/01/30 03:37:15;;;;;;;6.28;4.25;;;0.40;99.90;;;;;;5134924;27;20399;-52
2021/01/30 03:39:41;;;;;;;7.57;4.20;;;0.50;99.90;;;;;;5134576;27;20043;-54
2021/01/30 03:42:07;;;;;;;20.05;5.15;;;0.40;99.90;;;;;;5134870;27;20442;-51
2021/01/30 03:44:33;;;;;;;7.95;5.03;;;0.40;99.90;;;;;;5134756;27;20051;-52
2021/01/30 03:46:58;;;;;;;7.70;4.38;;;0.40;99.90;;;;;;5134484;27;20465;-51
2021/01/30 03:49:24;;;;;;;9.32;4.85;;;0.40;99.90;;;;;;5134672;27;20043;-51
2021/01/30 03:51:50;;;;;;;8.90;4.47;;;0.40;99.90;;;;;;5134288;27;20400;-54
2021/01/30 03:54:15;;;;;;;7.32;4.00;;;0.40;99.90;;;;;;5134315;27;20039;-52
2021/01/30 03:56:43;;;;;;;6.47;4.10;;;0.40;99.90;;;;;;5134634;27;20469;-51
2021/01/30 03:59:09;;;;;;;9.48;4.50;;;0.30;99.90;;;;;;5134232;27;20468;-52
2021/01/30 04:01:35;;;;;;;5.60;4.28;;;0.30;99.90;;;;;;5134431;27;20050;-52
2021/01/30 04:04:01;;;;;;;6.97;4.35;;;0.30;99.90;;;;;;5134386;27;20446;-52
2021/01/30 04:06:27;;;;;;;13.48;5.13;;;0.30;99.90;;;;;;5133893;27;20108;-53
2021/01/30 04:08:53;;;;;;;6.95;4.28;;;0.30;99.90;;;;;;5134076;27;20071;-54
2021/01/30 04:11:27;;;;;;;13.85;4.60;;;0.20;99.90;;;;;;5134254;27;20075;-53
2021/01/30 04:13:53;;;;;;;7.45;4.07;;;0.20;99.90;;;;;;5133959;27;20472;-54
2021/01/30 04:16:19;;;;;;;10.85;4.10;;;0.20;99.90;;;;;;5134042;27;20046;-51
2021/01/30 04:18:45;;;;;;;8.23;3.97;;;0.20;99.90;;;;;;5133786;27;20496;-53
2021/01/30 04:21:10;;;;;;;8.95;3.72;;;0.30;99.90;;;;;;5134034;27;20054;-52
2021/01/30 04:23:36;;;;;;;8.65;4.00;;;0.20;99.90;;;;;;5133449;27;20123;-49
2021/01/30 04:26:03;;;;;;;6.25;3.95;;;0.20;99.90;;;;;;5134077;27;20051;-53
2021/01/30 04:28:29;;;;;;;7.78;4.15;;;0.20;99.90;;;;;;5134088;27;20473;-54
2021/01/30 04:30:54;;;;;;;8.77;4.05;;;0.20;99.90;;;;;;5133861;27;20039;-54
2021/01/30 04:33:20;;;;;;;8.57;4.63;;;0.20;99.90;;;;;;5133620;27;20488;-53
2021/01/30 04:35:46;;;;;;;7.53;4.10;;;0.10;99.90;;;;;;5134196;27;20158;-53
2021/01/30 04:38:11;;;;;;;8.00;3.60;;;0.10;99.90;;;;;;5133520;27;20054;-54
2021/01/30 04:40:43;;;;;;;5.70;3.85;;;0.10;99.90;;;;;;5133446;27;20042;-54
2021/01/30 04:43:39;;;;;;;9.35;3.72;;;0.10;99.90;;;;;;5115402;27;20540;-54
2021/01/30 04:46:19;;;;;;;7.13;4.03;;;0.00;99.90;;;;;;5133237;27;20043;-54
2021/01/30 04:48:45;;;;;;;9.15;3.63;;;0.00;99.90;;;;;;5133576;27;20054;-54
2021/01/30 04:51:17;;;;;;;6.93;3.25;;;0.00;99.90;;;;;;5133668;27;20043;-53
2021/01/30 04:54:12;;;;;;;9.73;4.60;;;0.00;99.90;;;;;;5133337;27;20062;-51
2021/01/30 04:57:22;;;;;;;7.68;3.75;;;0.00;99.90;;;;;;5132086;27;20047;-52
2021/01/30 05:00:10;;;;;;;7.40;4.55;;;-0.10;99.90;;;;;;5130133;27;20497;-52
2021/01/30 05:02:59;;;;;;;8.55;4.03;;;0.00;99.90;;;;;;5133217;27;20043;-54
2021/01/30 05:05:27;;;;;;;9.25;3.95;;;0.00;99.90;;;;;;5133134;27;20149;-54
2021/01/30 05:08:02;;;;;;;6.50;4.00;;;-0.10;99.90;;;;;;5133222;27;20134;-54
2021/01/30 05:10:59;;;;;;;5.93;3.80;;;-0.10;99.90;;;;;;5133094;27;20035;-54
2021/01/30 05:13:50;;;;;;;8.25;4.57;;;-0.10;99.90;;;;;;5132997;27;20043;-52
2021/01/30 05:16:25;;;;;;;8.57;4.10;;;-0.20;99.90;;;;;;5133016;27;20035;-53
2021/01/30 05:18:57;;;;;;;8.88;5.10;;;-0.20;99.90;;;;;;5133177;27;20062;-53
2021/01/30 05:21:39;;;;;;;7.72;4.50;;;-0.20;99.90;;;;;;5132959;27;20050;-52
2021/01/30 05:24:07;;;;;;;8.68;4.28;;;-0.20;99.90;;;;;;5133316;27;20051;-53
2021/01/30 05:26:45;;;;;;;7.20;4.03;;;-0.20;99.90;;;;;;5132855;27;20039;-54
2021/01/30 05:29:13;;;;;;;8.15;3.95;;;-0.20;99.90;;;;;;5132756;28;20035;-51
2021/01/30 05:32:05;;;;;;;10.60;4.27;;;-0.30;99.90;;;;;;5132878;28;20047;-52
2021/01/30 05:34:42;;;;;;;9.30;4.00;;;-0.20;99.90;;;;;;5132994;27;20046;-50
2021/01/30 05:37:15;;;;;;;6.05;3.63;;;-0.20;99.90;;;;;;5136022;27;20043;-53
2021/01/30 05:39:51;;;;;;;6.85;4.25;;;-0.20;99.90;;;;;;5137088;27;20043;-53
2021/01/30 05:42:22;;;;;;;10.93;4.25;;;-0.20;99.90;;;;;;5137095;27;20416;-52
2021/01/30 05:45:15;;;;;;;9.63;4.15;;;-0.30;99.90;;;;;;5136899;27;20068;-53
2021/01/30 05:47:42;;;;;;;7.85;4.22;;;-0.20;99.90;;;;;;5136802;27;20043;-52
2021/01/30 05:50:21;;;;;;;10.95;4.80;;;-0.30;99.90;;;;;;5135902;27;20039;-52
2021/01/30 05:52:46;;;;;;;12.90;4.75;;;-0.30;99.90;;;;;;5136869;27;20085;-50
2021/01/30 05:55:25;;;;;;;6.68;4.25;;;-0.30;99.90;;;;;;5136757;27;20551;-53
2021/01/30 05:57:51;;;;;;;9.98;4.45;;;-0.30;99.90;;;;;;5136667;27;20053;-53
2021/01/30 06:00:19;;;;;;;7.68;4.35;;;-0.30;99.90;;;;;;5136840;27;20047;-54
2021/01/30 06:03:12;;;;;;;8.40;4.63;;;-0.40;99.90;;;;;;5136630;27;20488;-54
2021/01/30 06:05:44;;;;;;;7.82;4.80;;;-0.40;99.90;;;;;;5136200;27;20513;-53
2021/01/30 06:08:31;;;;;;;7.93;3.88;;;-0.40;99.90;;;;;;5137011;27;20051;-52
2021/01/30 06:11:14;;;;;;;11.38;4.40;;;-0.40;99.90;;;;;;5136708;27;20046;-53
2021/01/30 06:14:01;;;;;;;10.20;4.15;;;-0.40;99.90;;;;;;5136379;27;20063;-53
2021/01/30 06:16:48;;;;;;;10.65;4.47;;;-0.30;99.90;;;;;;5136203;27;20236;-53
2021/01/30 06:19:18;;;;;;;7.82;5.20;;;-0.30;99.90;;;;;;5136226;27;20503;-52
2021/01/30 06:21:46;;;;;;;10.85;5.30;;;-0.30;99.90;;;;;;5136714;27;20043;-54
2021/01/30 06:24:29;;;;;;;6.97;4.40;;;-0.30;99.90;;;;;;5136167;27;20043;-52
2021/01/30 06:26:57;;;;;;;9.25;4.80;;;-0.30;99.90;;;;;;5136112;27;20062;-54
2021/01/30 06:29:35;;;;;;;15.27;5.28;;;-0.30;99.90;;;;;;5136263;27;20043;-52
2021/01/30 06:32:18;;;;;;;9.73;4.30;;;-0.40;99.90;;;;;;5136121;27;20092;-51
2021/01/30 06:34:46;;;;;;;9.82;4.93;;;-0.40;99.90;;;;;;5136012;27;20040;-52
2021/01/30 06:37:26;;;;;;;12.45;5.30;;;-0.40;99.90;;;;;;5136263;27;20043;-54
2021/01/30 06:40:06;;;;;;;10.80;5.70;;;-0.40;99.90;;;;;;5136096;27;20043;-51
2021/01/30 06:42:34;;;;;;;10.02;5.22;;;-0.40;99.90;;;;;;5135933;27;20393;-54
2021/01/30 06:45:06;;;;;;;13.57;5.13;;;-0.40;99.90;;;;;;5134570;27;20053;-54
2021/01/30 06:47:48;;;;;;;9.10;5.15;;;-0.40;99.90;;;;;;5135428;27;20545;-54
2021/01/30 06:50:46;;;;;;;6.97;4.55;;;-0.40;99.90;;;;;;5135778;27;20537;-53
2021/01/30 06:53:13;;;;;;;9.10;4.53;;;-0.50;99.90;;;;;;5072398;28;20040;-52
2021/01/30 06:55:39;;;;;;;9.15;4.47;;;-0.50;99.90;;;;;;5072026;28;20056;-53
2021/01/30 06:58:06;;;;;;;8.05;4.75;;;-0.50;99.90;;;;;;5072135;28;20045;-54
2021/01/30 07:00:37;;;;;;;6.78;4.28;;;-0.50;99.90;;;;;;5072171;28;20409;-54
2021/01/30 07:03:18;;;;;;;6.40;4.35;;;-0.50;99.90;;;;;;5072126;28;20135;-54
2021/01/30 07:06:01;;;;;;;6.63;4.30;;;-0.60;99.90;;;;;;5071917;28;20056;-54
2021/01/30 07:09:03;;;;;;;7.57;4.85;;;-0.60;99.90;;;;;;5071948;28;20132;-52
2021/01/30 07:11:46;;;;;;;7.20;4.35;;;-0.50;99.90;;;;;;5072079;28;20051;-54
2021/01/30 07:14:17;;;;;;;7.90;4.63;;;-0.60;99.90;;;;;;5071724;28;20556;-54
2021/01/30 07:16:43;;;;;;;10.98;5.43;;;-0.60;99.90;;;;;;5071808;28;20044;-53
2021/01/30 07:19:35;;;;;;;14.98;7.07;;;-0.60;99.90;;;;;;5071682;28;20058;-54
2021/01/30 07:22:35;;;;;;;12.57;7.20;;;-0.70;99.90;;;;;;5072030;28;20409;-54
2021/01/30 07:25:19;;;;;;;13.98;7.50;;;-0.80;99.90;;;;;;5011950;28;20050;-54
2021/01/30 07:27:47;;;;;;;14.45;8.30;;;-0.80;99.90;;;;;;5018179;28;20065;-53
2021/01/30 07:30:42;;;;;;;15.88;7.05;;;-0.80;99.90;;;;;;5091786;28;20036;-55
2021/01/30 07:33:18;;;;;;;10.07;6.07;;;-0.80;99.90;;;;;;5091883;28;20075;-53
2021/01/30 07:36:11;;;;;;;10.48;6.05;;;-0.80;99.90;;;;;;5091758;28;20072;-54
2021/01/30 07:39:13;;;;;;;12.50;6.47;;;-0.80;99.90;;;;;;5091697;28;20043;-54
2021/01/30 07:41:48;;;;;;;11.48;6.47;;;-0.80;99.90;;;;;;5091513;28;20058;-55
2021/01/30 07:44:22;;;;;;;11.57;6.63;;;-0.80;99.90;;;;;;5091349;28;20048;-54
2021/01/30 07:47:09;;;;;;;12.63;5.88;;;-0.80;99.90;;;;;;5091404;28;20044;-55
2021/01/30 07:49:37;;;;;;;12.23;6.43;;;-0.80;99.90;;;;;;5091145;28;20053;-54
2021/01/30 07:52:08;;;;;;;17.35;6.07;;;-0.80;99.90;;;;;;5074405;28;20044;-55
2021/01/30 07:54:45;;;;;;;10.95;5.82;;;-0.70;99.90;;;;;;5091404;28;20048;-54
2021/01/30 07:57:57;;;;;;;10.55;5.97;;;-0.70;99.90;;;;;;5091309;28;20044;-54
2021/01/30 08:00:38;;;;;;;10.77;6.22;;;-0.70;99.90;;;;;;5090797;28;20546;-55
2021/01/30 08:03:27;;;;;;;11.55;6.07;;;-0.70;99.90;;;;;;5134441;27;20039;-53
2021/01/30 08:06:20;;;;;;;11.85;6.60;;;-0.60;99.90;;;;;;5134296;27;20104;-54
2021/01/30 08:09:17;;;;;;;13.10;6.65;;;-0.60;99.90;;;;;;5134279;27;20059;-54
2021/01/30 08:12:13;;;;;;;12.63;6.85;;;-0.50;99.90;;;;;;5134146;27;20519;-54
2021/01/30 08:15:01;;;;;;;22.92;7.85;;;-0.50;99.90;;;;;;5070679;28;20067;-54
2021/01/30 08:17:44;;;;;;;16.67;8.27;;;-0.40;99.90;;;;;;5070545;28;20075;-53
2021/01/30 08:20:44;;;;;;;16.13;8.07;;;-0.30;99.90;;;;;;5070605;28;20099;-54
2021/01/30 08:23:29;;;;;;;12.23;7.70;;;-0.20;99.90;;;;;;5010878;28;20049;-55
2021/01/30 08:26:03;;;;;;;14.88;7.53;;;-0.20;99.90;;;;;;5010911;28;20073;-55
2021/01/30 08:28:38;;;;;;;11.10;7.38;;;0.00;99.90;;;;;;5011096;28;20056;-55
2021/01/30 08:31:04;;;;;;;11.45;7.25;;;0.10;99.90;;;;;;5010744;28;20046;-55
2021/01/30 08:34:07;;;;;;;11.70;7.00;;;0.20;99.90;;;;;;5010920;28;20046;-56
2021/01/30 08:36:42;;;;;;;12.75;6.43;;;0.40;99.90;;;;;;4933702;29;20052;-56
2021/01/30 08:39:21;;;;;;;11.50;6.90;;;0.60;99.90;;;;;;4933196;29;20047;-56
2021/01/30 08:42:06;;;;;;;11.57;6.68;;;0.80;99.90;;;;;;4933427;29;20055;-56
2021/01/30 08:44:42;;;;;;;12.25;6.70;;;0.90;99.90;;;;;;4933218;29;20059;-56
2021/01/30 08:47:19;;;;;;;13.38;6.80;;;1.00;99.90;;;;;;4933017;29;20051;-56
2021/01/30 08:50:19;;;;;;;10.50;6.35;;;1.30;99.90;;;;;;4933143;29;21634;-56
2021/01/30 08:52:49;;;;;;;10.60;6.20;;;1.50;99.20;;;;;;4932993;29;20123;-56
2021/01/30 08:55:45;;;;;;;9.68;6.35;;;1.80;99.00;;;;;;4933271;29;20043;-56
2021/01/30 08:58:32;;;;;;;12.10;7.03;;;2.00;98.70;;;;;;4938304;29;20058;-57
2021/01/30 09:01:05;;;;;;;9.45;5.80;;;2.30;98.00;;;;;;4952263;29;20070;-56
2021/01/30 09:03:51;;;;;;;9.38;6.10;;;2.50;98.40;;;;;;4948939;29;20047;-57
2021/01/30 09:06:40;;;;;;;13.40;7.07;;;2.50;96.70;;;;;;4946256;29;20086;-57
2021/01/30 09:09:12;;;;;;;11.43;6.82;;;2.60;97.50;;;;;;4946886;29;20052;-56
2021/01/30 09:11:42;;;;;;;10.68;5.20;;;2.70;96.50;;;;;;5041666;28;20482;-56
2021/01/30 09:14:16;;;;;;;9.63;6.00;;;2.70;97.30;;;;;;5049670;28;20055;-57
2021/01/30 09:16:54;;;;;;;9.40;5.97;;;2.70;96.50;;;;;;5049483;28;20135;-56
2021/01/30 09:20:03;;;;;;;9.88;5.65;;;3.00;97.00;;;;;;5049633;28;20041;-57
2021/01/30 09:22:52;;;;;;;10.40;5.97;;;2.80;95.80;;;;;;4980791;28;20049;-56
2021/01/30 09:25:38;;;;;;;8.63;5.53;;;2.80;95.90;;;;;;4980930;28;20062;-57
2021/01/30 09:28:13;;;;;;;12.15;4.72;;;2.80;96.50;;;;;;4987993;28;20062;-57
2021/01/30 09:30:54;;;;;;;9.23;5.80;;;2.70;95.70;;;;;;5060487;28;20041;-56
2021/01/30 09:33:27;;;;;;;9.55;5.68;;;2.60;95.70;;;;;;5059899;28;20438;-56
2021/01/30 09:36:15;;;;;;;11.65;5.22;;;2.50;96.60;;;;;;5041280;28;20112;-56
2021/01/30 09:38:50;;;;;;;12.25;5.50;;;2.30;95.80;;;;;;5059975;28;20044;-56
2021/01/30 09:41:32;;;;;;;11.00;5.90;;;2.40;96.60;;;;;;5059729;28;20041;-56
2021/01/30 09:44:16;;;;;;;7.00;5.05;;;2.40;96.00;;;;;;5059063;28;20068;-56
2021/01/30 09:46:44;;;;;;;9.52;5.55;;;2.20;96.30;;;;;;5059456;28;20068;-56
2021/01/30 09:49:32;;;;;;;8.45;5.32;;;2.30;96.20;;;;;;5055760;28;20047;-56
2021/01/30 09:51:59;;;;;;;7.32;5.20;;;2.30;95.80;;;;;;5058518;28;20094;-56
2021/01/30 09:54:28;;;;;;;9.88;6.20;;;2.30;96.30;;;;;;5058063;28;20090;-56
2021/01/30 09:57:06;;;;;;;8.00;5.25;;;2.30;96.50;;;;;;5042881;28;20045;-56
2021/01/30 09:59:32;;;;;;;8.68;5.38;;;2.30;96.80;;;;;;5102579;28;20051;-56
2021/01/30 10:02:16;;;;;;;9.55;5.75;;;2.20;96.70;;;;;;5127912;27;20158;-57
2021/01/30 10:04:43;;;;;;;8.75;5.32;;;2.00;96.30;;;;;;5129784;27;20118;-56
2021/01/30 10:07:12;;;;;;;8.95;5.45;;;2.00;96.70;;;;;;5129757;27;20460;-56
2021/01/30 10:09:46;;;;;;;8.88;5.05;;;1.90;96.20;;;;;;5129853;28;20035;-56
2021/01/30 10:12:14;;;;;;;9.63;5.03;;;2.00;96.60;;;;;;5127970;28;20088;-56
2021/01/30 10:14:45;;;;;;;7.82;5.35;;;2.00;96.50;;;;;;5133060;27;20046;-56
2021/01/30 10:17:21;;;;;;;11.65;5.47;;;2.00;97.20;;;;;;5133056;27;20046;-56
2021/01/30 10:19:55;;;;;;;9.57;5.22;;;1.90;96.60;;;;;;5133105;28;20047;-57
2021/01/30 10:22:23;;;;;;;8.18;5.35;;;1.90;96.70;;;;;;5134430;27;20050;-57
2021/01/30 10:24:49;;;;;;;9.10;5.25;;;2.10;95.50;;;;;;5136771;27;20138;-56
2021/01/30 10:27:18;;;;;;;7.47;5.00;;;2.10;95.80;;;;;;5136545;27;20066;-58
2021/01/30 10:29:44;;;;;;;6.90;4.80;;;2.20;96.00;;;;;;5137117;27;20130;-58
2021/01/30 10:32:21;;;;;;;7.25;4.75;;;2.30;95.70;;;;;;5137463;27;20047;-58
2021/01/30 10:34:50;;;;;;;7.90;4.65;;;2.30;95.40;;;;;;5137622;27;20050;-58
2021/01/30 10:37:22;;;;;;;7.10;5.00;;;2.40;95.70;;;;;;5137337;27;20053;-58
2021/01/30 10:40:04;;;;;;;9.77;5.53;;;2.30;95.50;;;;;;5137634;27;20043;-57
2021/01/30 10:42:34;;;;;;;8.23;5.20;;;2.30;94.90;;;;;;5137308;27;20437;-58
2021/01/30 10:45:22;;;;;;;7.85;5.25;;;2.00;95.10;;;;;;5137450;27;20098;-58
2021/01/30 10:48:00;;;;;;;8.63;4.70;;;1.90;95.30;;;;;;5130456;27;20039;-58
2021/01/30 10:50:31;;;;;;;9.38;5.53;;;1.70;95.10;;;;;;5137298;27;20089;-58
2021/01/30 10:53:15;;;;;;;8.23;5.28;;;1.50;95.80;;;;;;5137126;27;20043;-58
2021/01/30 10:55:41;;;;;;;6.53;4.93;;;1.50;96.10;;;;;;5137242;27;20043;-59
2021/01/30 10:58:31;;;;;;;8.88;5.22;;;1.60;95.80;;;;;;5136961;27;20119;-58
2021/01/30 11:01:16;;;;;;;8.30;4.88;;;1.70;96.20;;;;;;5137146;27;20039;-58
2021/01/30 11:03:48;;;;;;;13.05;5.43;;;1.80;95.80;;;;;;5135441;27;20047;-58
2021/01/30 11:06:31;;;;;;;8.98;5.15;;;2.00;95.90;;;;;;5134458;27;20046;-58
2021/01/30 11:09:11;;;;;;;7.72;4.65;;;2.20;95.60;;;;;;5135094;27;20126;-58
2021/01/30 11:11:38;;;;;;;8.15;5.15;;;2.30;95.30;;;;;;5135928;27;20536;-58
2021/01/30 11:14:14;;;;;;;10.35;4.47;;;2.30;94.40;;;;;;5135959;27;20047;-58
2021/01/30 11:16:40;;;;;;;7.07;4.57;;;2.30;94.00;;;;;;5136262;27;20050;-58
2021/01/30 11:19:22;;;;;;;9.63;4.40;;;2.30;94.20;;;;;;5135437;27;20039;-58
2021/01/30 11:22:01;;;;;;;8.27;4.75;;;2.20;94.10;;;;;;5116115;28;20048;-58
2021/01/30 11:24:47;;;;;;;6.97;4.60;;;2.00;94.20;;;;;;5124562;27;20049;-58
2021/01/30 11:27:45;;;;;;;8.02;5.60;;;1.90;94.80;;;;;;5115040;28;20044;-55
2021/01/30 11:30:16;;;;;;;6.28;4.43;;;1.80;94.80;;;;;;5052149;28;20098;-55
2021/01/30 11:32:48;;;;;;;7.18;4.60;;;1.60;94.60;;;;;;5051966;28;20048;-55
2021/01/30 11:35:27;;;;;;;5.90;4.20;;;1.50;95.30;;;;;;5051065;28;20037;-54
2021/01/30 11:37:56;;;;;;;11.20;4.57;;;1.50;94.30;;;;;;5052035;28;20148;-56
2021/01/30 11:40:23;;;;;;;6.28;4.72;;;1.40;95.20;;;;;;5051829;28;20496;-55
2021/01/30 11:42:48;;;;;;;6.95;4.50;;;1.60;95.60;;;;;;5051953;28;20080;-56
2021/01/30 11:45:15;;;;;;;8.48;4.95;;;1.60;94.70;;;;;;5051914;28;20057;-56
2021/01/30 11:47:40;;;;;;;7.32;4.90;;;1.80;95.60;;;;;;5052309;28;20045;-56
2021/01/30 11:50:07;;;;;;;7.15;4.82;;;1.80;94.80;;;;;;5052056;28;20051;-56
2021/01/30 11:52:33;;;;;;;7.78;4.70;;;2.00;94.70;;;;;;5051897;28;20049;-56
2021/01/30 11:55:02;;;;;;;6.32;4.95;;;2.00;94.60;;;;;;5051662;28;20095;-56
2021/01/30 11:57:28;;;;;;;7.40;5.27;;;2.10;94.90;;;;;;5051803;28;20052;-56
2021/01/30 11:59:54;;;;;;;6.55;4.65;;;2.30;94.70;;;;;;5051495;28;20065;-56
2021/01/30 12:02:31;;;;;;;6.47;4.80;;;2.50;93.60;;;;;;5051321;28;20079;-56
2021/01/30 12:04:57;;;;;;;7.93;5.18;;;2.70;93.70;;;;;;5051345;28;20064;-56
2021/01/30 12:07:23;;;;;;;7.22;4.88;;;2.70;93.10;;;;;;5105361;28;20446;-55
2021/01/30 12:09:49;;;;;;;8.25;5.18;;;2.60;93.20;;;;;;5126712;27;20046;-56
2021/01/30 12:12:15;;;;;;;6.97;4.93;;;2.60;92.00;;;;;;5134345;27;20035;-49
2021/01/30 12:14:40;;;;;;;5.78;4.75;;;2.80;93.00;;;;;;5134609;27;20070;-49
2021/01/30 12:17:07;;;;;;;7.88;4.95;;;3.40;91.30;;;;;;5134409;27;20078;-51
2021/01/30 12:19:33;;;;;;;6.50;4.82;;;4.10;91.00;;;;;;5134292;27;20054;-53
2021/01/30 12:21:59;;;;;;;7.38;4.50;;;4.70;86.50;;;;;;5134135;27;20480;-51
2021/01/30 12:24:25;;;;;;;6.20;4.57;;;5.00;87.70;;;;;;5134349;27;20047;-52
2021/01/30 12:26:51;;;;;;;6.22;4.80;;;5.10;81.80;;;;;;5134056;27;20469;-53
2021/01/30 12:29:17;;;;;;;6.25;5.00;;;5.40;81.70;;;;;;5133677;27;20035;-52
2021/01/30 12:31:42;;;;;;;5.05;4.55;;;5.10;84.40;;;;;;5132688;27;20418;-52
2021/01/30 12:34:09;;;;;;;5.35;4.35;;;4.90;87.00;;;;;;5132887;27;20054;-51
2021/01/30 12:36:34;;;;;;;6.95;4.30;;;5.30;86.10;;;;;;5133519;27;20039;-50
2021/01/30 12:39:00;;;;;;;6.68;4.40;;;5.60;83.80;;;;;;5133536;27;20122;-52
2021/01/30 12:41:26;;;;;;;6.57;4.55;;;6.10;79.10;;;;;;5133556;27;20043;-53
2021/01/30 12:43:51;;;;;;;6.93;5.05;;;5.50;78.30;;;;;;5133427;27;20046;-51
2021/01/30 12:46:18;;;;;;;7.45;4.80;;;5.70;79.60;;;;;;5131936;27;20061;-53
2021/01/30 12:48:43;;;;;;;5.25;4.65;;;5.40;81.40;;;;;;5133528;27;20047;-53
2021/01/30 12:51:10;;;;;;;7.03;4.50;;;5.50;83.30;;;;;;5133451;27;20053;-53
2021/01/30 12:53:37;;;;;;;6.00;4.28;;;5.60;82.60;;;;;;5133764;27;20430;-54
2021/01/30 12:56:03;;;;;;;5.97;4.55;;;5.50;82.60;;;;;;5133108;27;20039;-54
2021/01/30 12:58:29;;;;;;;7.05;4.82;;;5.00;84.50;;;;;;5133174;27;20039;-51
2021/01/30 13:00:56;;;;;;;6.60;5.20;;;4.50;85.00;;;;;;5133279;27;20047;-52
2021/01/30 13:03:23;;;;;;;6.88;4.82;;;3.80;85.40;;;;;;5133181;27;20043;-49
2021/01/30 13:05:53;;;;;;;6.20;4.68;;;3.50;88.70;;;;;;5132966;27;20097;-51
2021/01/30 13:08:20;;;;;;;5.93;4.68;;;3.30;90.60;;;;;;5132927;27;20488;-51
2021/01/30 13:10:45;;;;;;;7.07;4.80;;;3.10;90.70;;;;;;5133021;27;20488;-51
2021/01/30 13:13:11;;;;;;;6.22;4.90;;;3.10;90.50;;;;;;5133213;27;20042;-52
2021/01/30 13:15:37;;;;;;;6.47;5.00;;;2.90;91.00;;;;;;5133247;27;20482;-52
2021/01/30 13:18:04;;;;;;;7.10;5.05;;;2.80;91.00;;;;;;5132939;27;20054;-53
2021/01/30 13:20:30;;;;;;;5.63;4.80;;;2.60;90.90;;;;;;5132950;27;20129;-48
2021/01/30 13:22:56;;;;;;;7.63;5.60;;;2.60;91.90;;;;;;5132791;27;20503;-52
2021/01/30 13:25:23;;;;;;;7.05;5.05;;;2.40;92.20;;;;;;5132841;27;20099;-52
2021/01/30 13:27:49;;;;;;;6.53;5.18;;;2.40;92.10;;;;;;5132937;27;20050;-55